Time;durP1;ratioP1;P1;durP2;ratioP2;P2;SDS_P1;SDS_P2;PMS_P1;PMS_P2;Temp;Humidity;BMP_temperature;BMP_pressure;BME280_temperature;BME280_humidity;BME280_pressure;Samples;Min_cycle;Max_cycle;Signal;HPM_P1;HPM_P2
2024/02/09 00:01:49;;;;;;;6.07;1.20;;;20.40;35.30;;;;;;6303553;28;20024;-75
2024/02/09 00:04:50;;;;;;;10.55;1.52;;;20.30;34.70;;;;;;6307159;28;20107;-74
2024/02/09 00:07:52;;;;;;;6.78;1.20;;;20.30;35.00;;;;;;6283122;28;20221;-75
2024/02/09 00:10:52;;;;;;;6.82;1.13;;;20.20;35.10;;;;;;6286740;28;20027;-75
2024/02/09 00:13:55;;;;;;;7.25;1.45;;;20.20;35.60;;;;;;6305556;28;20035;-76
2024/02/09 00:16:56;;;;;;;8.80;1.73;;;20.10;36.10;;;;;;6300504;28;20077;-75
2024/02/09 00:19:58;;;;;;;4.45;1.30;;;20.00;36.70;;;;;;6294077;28;20029;-75
2024/02/09 00:22:58;;;;;;;8.05;1.70;;;19.90;37.20;;;;;;6305495;28;20515;-75
2024/02/09 00:26:00;;;;;;;5.70;1.35;;;19.80;37.80;;;;;;6296681;28;20053;-75
2024/02/09 00:29:03;;;;;;;6.57;1.52;;;19.70;38.60;;;;;;6282010;28;20015;-75
2024/02/09 00:32:07;;;;;;;2.13;0.75;;;19.60;38.90;;;;;;6294201;28;20032;-75
2024/02/09 00:35:08;;;;;;;6.38;0.90;;;19.50;39.20;;;;;;6289058;28;20020;-75
2024/02/09 00:38:09;;;;;;;9.27;1.25;;;19.50;39.60;;;;;;6282303;28;20126;-74
2024/02/09 00:41:16;;;;;;;10.85;1.17;;;19.30;40.20;;;;;;6287625;28;20024;-75
2024/02/09 00:44:17;;;;;;;4.63;0.90;;;19.20;40.90;;;;;;6307632;28;20452;-75
2024/02/09 00:47:18;;;;;;;3.67;0.90;;;19.00;41.20;;;;;;6291333;28;20024;-74
2024/02/09 00:50:19;;;;;;;3.25;1.20;;;18.90;41.60;;;;;;6295394;28;20464;-74
2024/02/09 00:53:20;;;;;;;9.68;1.65;;;18.90;42.00;;;;;;6287710;28;20042;-72
2024/02/09 00:56:21;;;;;;;3.95;0.75;;;18.80;42.50;;;;;;6281547;28;20457;-75
2024/02/09 00:59:23;;;;;;;3.67;1.38;;;18.70;42.70;;;;;;6285974;28;20761;-75
2024/02/09 01:02:25;;;;;;;4.95;1.15;;;18.60;42.90;;;;;;6285091;28;20123;-75
2024/02/09 01:05:26;;;;;;;6.45;1.55;;;18.60;43.40;;;;;;6281191;28;20115;-75
2024/02/09 01:08:28;;;;;;;3.75;1.52;;;18.50;43.70;;;;;;6284797;28;20536;-75
2024/02/09 01:11:30;;;;;;;4.60;0.70;;;18.40;43.90;;;;;;6291571;28;20874;-74
2024/02/09 02:45:18;;;;;;;9.45;1.00;;;18.20;43.10;;;;;;6298511;28;20035;-73
2024/02/09 03:05:25;;;;;;;1.48;1.15;;;18.20;43.10;;;;;;6300116;28;20027;-75
2024/02/09 03:08:26;;;;;;;3.92;1.48;;;18.20;43.40;;;;;;6281713;28;20020;-74
2024/02/09 03:11:26;;;;;;;5.10;0.82;;;18.20;43.40;;;;;;6279356;28;20481;-75
2024/02/09 03:14:30;;;;;;;2.83;0.90;;;18.20;43.60;;;;;;6303638;28;20350;-75
2024/02/09 03:17:32;;;;;;;8.07;1.13;;;18.20;43.80;;;;;;6295385;28;20020;-75
2024/02/09 03:20:34;;;;;;;6.35;1.25;;;18.20;44.00;;;;;;6296934;28;20076;-74
2024/02/09 03:23:36;;;;;;;3.58;1.25;;;18.10;44.30;;;;;;6288409;28;20447;-74
2024/02/09 03:26:36;;;;;;;3.13;0.95;;;18.10;44.60;;;;;;6283817;28;20074;-75
2024/02/09 03:29:39;;;;;;;5.57;1.10;;;18.00;44.80;;;;;;6303829;28;20032;-76
2024/02/09 03:32:44;;;;;;;2.20;0.93;;;18.00;45.20;;;;;;6292531;28;20040;-73
2024/02/09 03:36:09;;;;;;;7.25;1.20;;;17.90;45.30;;;;;;6308735;28;20022;-74
2024/02/09 03:39:38;;;;;;;3.65;1.10;;;17.90;45.60;;;;;;6294961;28;20027;-73
2024/02/09 03:42:40;;;;;;;4.13;1.05;;;17.90;45.80;;;;;;6284933;28;20041;-76
2024/02/09 03:45:41;;;;;;;4.57;1.27;;;17.80;45.90;;;;;;6285055;28;20097;-73
2024/02/09 03:48:42;;;;;;;2.80;1.10;;;17.70;46.10;;;;;;6291529;28;20118;-75
2024/02/09 03:51:43;;;;;;;4.90;0.95;;;17.70;46.20;;;;;;6293798;28;20180;-75
2024/02/09 03:54:44;;;;;;;3.53;0.75;;;17.70;46.30;;;;;;6285347;28;20127;-75
2024/02/09 03:57:45;;;;;;;4.78;1.02;;;17.70;46.30;;;;;;6282438;28;20058;-75
2024/02/09 04:00:52;;;;;;;1.75;0.90;;;17.70;46.40;;;;;;6281905;28;20451;-74
2024/02/09 04:04:18;;;;;;;3.97;1.20;;;17.70;46.30;;;;;;6267762;28;20048;-74
2024/02/09 04:07:21;;;;;;;3.35;0.80;;;17.70;46.40;;;;;;6282927;28;20047;-75
2024/02/09 04:10:22;;;;;;;7.53;1.20;;;17.60;46.40;;;;;;6302990;28;20028;-74
2024/02/09 04:13:22;;;;;;;6.13;1.02;;;17.60;46.40;;;;;;6289494;28;20577;-75
2024/02/09 04:16:23;;;;;;;4.32;1.20;;;17.60;46.40;;;;;;6280926;28;20032;-74
2024/02/09 04:19:25;;;;;;;5.15;1.13;;;17.60;46.50;;;;;;6294453;28;20109;-74
2024/02/09 04:22:27;;;;;;;7.55;1.08;;;17.60;46.50;;;;;;6293920;28;20028;-75
2024/02/09 04:25:28;;;;;;;6.78;1.10;;;17.60;46.40;;;;;;6287521;28;20069;-75
2024/02/09 04:28:29;;;;;;;5.25;1.15;;;17.50;46.10;;;;;;6286100;28;20574;-74
2024/02/09 04:31:30;;;;;;;7.82;1.85;;;17.70;46.10;;;;;;6292350;28;20034;-74
2024/02/09 04:34:31;;;;;;;5.68;1.38;;;17.70;46.00;;;;;;6281653;28;20020;-76
2024/02/09 04:37:32;;;;;;;8.95;1.05;;;17.70;45.80;;;;;;6281998;28;20017;-74
2024/02/09 04:40:33;;;;;;;6.22;1.02;;;17.70;45.60;;;;;;6299238;28;20393;-75
2024/02/09 04:43:34;;;;;;;1.60;0.85;;;17.70;45.60;;;;;;6296762;28;20072;-74
2024/02/09 04:46:35;;;;;;;5.22;1.25;;;17.70;45.50;;;;;;6289064;28;20483;-76
2024/02/09 04:49:36;;;;;;;1.25;0.50;;;17.80;45.50;;;;;;6292418;28;20722;-73
2024/02/09 04:52:37;;;;;;;6.30;0.82;;;17.70;45.60;;;;;;6307699;28;20040;-76
2024/02/09 04:55:40;;;;;;;1.20;0.50;;;17.70;45.60;;;;;;6287445;28;20035;-74
2024/02/09 04:58:40;;;;;;;1.70;0.43;;;17.70;45.60;;;;;;6283713;28;20024;-74
2024/02/09 05:01:41;;;;;;;2.53;0.70;;;17.60;45.60;;;;;;6289737;28;20087;-74
2024/02/09 05:04:47;;;;;;;2.45;0.60;;;17.60;45.90;;;;;;6288343;28;20020;-75
2024/02/09 05:07:48;;;;;;;0.85;0.30;;;17.50;46.20;;;;;;6280028;28;20063;-76
2024/02/09 05:10:49;;;;;;;0.57;0.22;;;17.40;46.40;;;;;;6300847;28;20093;-75
2024/02/09 05:13:50;;;;;;;0.35;0.28;;;17.40;46.80;;;;;;6291316;28;20039;-74
2024/02/09 05:16:52;;;;;;;1.13;0.50;;;17.20;47.10;;;;;;6275563;28;20511;-75
2024/02/09 05:19:57;;;;;;;5.03;0.60;;;17.20;47.60;;;;;;6283995;28;20020;-75
2024/02/09 05:22:58;;;;;;;0.88;0.30;;;17.10;47.90;;;;;;6289274;28;20063;-75
2024/02/09 05:25:59;;;;;;;0.95;0.40;;;17.10;48.20;;;;;;6305999;28;20169;-75
2024/02/09 05:29:02;;;;;;;7.43;1.60;;;17.00;48.50;;;;;;6306020;28;20028;-75
2024/02/09 05:32:03;;;;;;;1.58;0.47;;;16.90;48.60;;;;;;6285522;28;20456;-74
2024/02/09 05:35:42;;;;;;;0.32;0.30;;;16.80;49.10;;;;;;6280241;28;20021;-73
2024/02/09 05:38:43;;;;;;;3.92;0.30;;;16.70;49.50;;;;;;6280413;28;20053;-75
2024/02/09 05:41:44;;;;;;;0.95;0.38;;;16.70;50.00;;;;;;6280875;28;20473;-75
2024/02/09 05:44:44;;;;;;;4.00;0.70;;;16.40;50.60;;;;;;6298181;28;20391;-75
2024/02/09 05:47:46;;;;;;;0.98;0.40;;;16.30;51.20;;;;;;6280479;28;20044;-74
2024/02/09 05:50:48;;;;;;;3.15;0.25;;;16.30;51.50;;;;;;6291032;28;20119;-77
2024/02/09 05:53:49;;;;;;;0.40;0.13;;;16.10;51.50;;;;;;6292961;28;20094;-75
2024/02/09 05:56:50;;;;;;;0.20;0.17;;;16.10;52.10;;;;;;6303501;28;20016;-75
2024/02/09 05:59:51;;;;;;;3.25;0.35;;;16.10;51.60;;;;;;6285190;28;20083;-74
2024/02/09 06:02:53;;;;;;;0.50;0.40;;;16.20;51.70;;;;;;6289274;28;20020;-76
2024/02/09 06:05:54;;;;;;;0.20;0.20;;;16.20;51.50;;;;;;6289841;28;20092;-74
2024/02/09 06:08:56;;;;;;;0.55;0.13;;;16.30;51.30;;;;;;6280721;28;20109;-74
2024/02/09 06:12:00;;;;;;;0.15;0.15;;;16.30;51.10;;;;;;6305684;28;20070;-75
2024/02/09 06:15:01;;;;;;;0.55;0.30;;;16.30;50.90;;;;;;6292448;28;20020;-75
2024/02/09 06:18:02;;;;;;;0.43;0.20;;;16.40;50.90;;;;;;6285257;28;20044;-75
2024/02/09 06:21:06;;;;;;;0.10;0.10;;;16.40;50.80;;;;;;6298706;28;20493;-76
2024/02/09 06:24:06;;;;;;;0.00;0.00;;;16.50;50.70;;;;;;6297612;28;20032;-76
2024/02/09 06:27:07;;;;;;;0.08;0.08;;;16.50;50.30;;;;;;6290031;28;20039;-74
2024/02/09 06:30:10;;;;;;;0.30;0.20;;;16.60;50.20;;;;;;6289307;28;20033;-75
2024/02/09 06:33:11;;;;;;;0.28;0.20;;;16.60;49.90;;;;;;6296651;28;20039;-76
2024/02/09 06:36:14;;;;;;;3.35;0.55;;;16.60;49.60;;;;;;6283481;28;20016;-77
2024/02/09 06:39:26;;;;;;;0.90;0.10;;;16.70;49.40;;;;;;6263229;28;20152;-75
2024/02/09 06:42:53;;;;;;;0.15;0.03;;;16.80;49.20;;;;;;6268146;28;20078;-76
2024/02/09 06:45:54;;;;;;;3.30;0.30;;;16.80;48.90;;;;;;6306295;28;20671;-75
2024/02/09 06:48:56;;;;;;;0.45;0.20;;;16.90;48.70;;;;;;6277976;28;20044;-77
2024/02/09 06:51:57;;;;;;;0.55;0.38;;;16.90;48.60;;;;;;6284859;28;20052;-76
2024/02/09 06:54:58;;;;;;;0.25;0.20;;;17.00;48.20;;;;;;6293088;28;20081;-77
2024/02/09 06:57:59;;;;;;;0.22;0.13;;;17.00;48.00;;;;;;6284044;28;20099;-76
2024/02/09 07:01:00;;;;;;;0.45;0.30;;;17.00;47.80;;;;;;6283967;28;20032;-77
2024/02/09 07:04:01;;;;;;;0.20;0.20;;;17.10;47.70;;;;;;6284283;28;20118;-76
2024/02/09 07:07:05;;;;;;;0.45;0.20;;;17.10;47.70;;;;;;6285821;28;20155;-76
2024/02/09 07:10:07;;;;;;;0.93;0.20;;;17.20;47.40;;;;;;6281655;28;20056;-74
2024/02/09 07:13:07;;;;;;;0.10;0.10;;;17.20;47.20;;;;;;6295216;28;20028;-75
2024/02/09 07:16:08;;;;;;;0.10;0.10;;;17.20;47.10;;;;;;6307504;28;20124;-75
2024/02/09 07:19:53;;;;;;;0.25;0.25;;;17.20;47.00;;;;;;6278486;28;20457;-75
2024/02/09 07:23:19;;;;;;;0.45;0.25;;;17.20;47.00;;;;;;6274678;28;20433;-76
2024/02/09 07:26:24;;;;;;;5.78;0.30;;;17.20;47.00;;;;;;6297429;28;20039;-76
2024/02/09 07:29:25;;;;;;;1.38;0.20;;;17.20;47.10;;;;;;6281644;28;20463;-75
2024/02/09 07:32:26;;;;;;;3.30;1.63;;;17.20;47.30;;;;;;6289839;28;20021;-76
2024/02/09 07:35:27;;;;;;;0.28;0.13;;;17.20;47.50;;;;;;6290008;28;20096;-77
2024/02/09 07:38:28;;;;;;;0.20;0.20;;;17.20;47.70;;;;;;6306690;28;20032;-76
2024/02/09 07:41:30;;;;;;;1.20;0.40;;;17.10;47.80;;;;;;6296159;28;20149;-77
2024/02/09 07:44:32;;;;;;;0.50;0.30;;;17.10;47.90;;;;;;6281762;28;20017;-77
2024/02/09 07:47:33;;;;;;;0.55;0.20;;;17.10;48.00;;;;;;6296374;28;20027;-77
2024/02/09 07:50:41;;;;;;;0.20;0.10;;;17.10;48.10;;;;;;6306701;28;21436;-78
2024/02/09 07:53:42;;;;;;;0.10;0.10;;;17.00;48.20;;;;;;6280323;28;20111;-76
2024/02/09 07:56:43;;;;;;;0.40;0.20;;;17.00;48.10;;;;;;6285482;28;20017;-77
2024/02/09 07:59:43;;;;;;;0.25;0.20;;;17.00;48.20;;;;;;6282126;28;20502;-78
2024/02/09 08:02:45;;;;;;;0.20;0.20;;;17.00;48.10;;;;;;6283563;28;20013;-77
2024/02/09 08:05:46;;;;;;;0.82;0.50;;;17.00;48.20;;;;;;6282033;28;20034;-74
2024/02/09 08:08:52;;;;;;;1.00;0.20;;;17.00;48.40;;;;;;6303914;28;20372;-78
2024/02/09 08:11:53;;;;;;;0.00;0.00;;;17.00;48.50;;;;;;6297169;28;20028;-78
2024/02/09 08:14:56;;;;;;;0.38;0.10;;;17.00;48.30;;;;;;6281057;28;20055;-77
2024/02/09 08:17:57;;;;;;;0.20;0.20;;;17.00;48.20;;;;;;6298667;28;20495;-77
2024/02/09 08:20:59;;;;;;;0.10;0.10;;;17.10;48.10;;;;;;6304088;28;20024;-77
2024/02/09 08:24:00;;;;;;;0.80;0.30;;;17.10;47.60;;;;;;6281686;28;20037;-76
2024/02/09 08:27:01;;;;;;;0.20;0.20;;;17.10;47.30;;;;;;6292917;28;20020;-77
2024/02/09 08:30:04;;;;;;;0.52;0.30;;;17.20;47.20;;;;;;6281357;28;20456;-76
2024/02/09 08:33:05;;;;;;;0.65;0.40;;;17.30;46.90;;;;;;6276433;28;20452;-76
2024/02/09 08:36:06;;;;;;;0.20;0.10;;;17.30;46.50;;;;;;6280006;28;20013;-77
2024/02/09 08:39:07;;;;;;;0.65;0.52;;;17.40;46.20;;;;;;6280097;28;20130;-77
2024/02/09 08:42:08;;;;;;;0.45;0.28;;;17.50;45.90;;;;;;6288956;28;20117;-76
2024/02/09 08:45:10;;;;;;;0.20;0.17;;;17.50;45.60;;;;;;6291797;28;20008;-78
2024/02/09 08:48:11;;;;;;;0.10;0.10;;;17.60;45.10;;;;;;6295263;28;20036;-76
2024/02/09 08:51:12;;;;;;;2.30;0.10;;;17.60;44.80;;;;;;6281792;28;20111;-76
2024/02/09 08:54:14;;;;;;;0.77;0.47;;;17.70;44.50;;;;;;6303710;28;20483;-76
2024/02/09 08:57:18;;;;;;;0.13;0.10;;;17.70;44.10;;;;;;6290750;28;20114;-75
2024/02/09 09:00:19;;;;;;;0.30;0.30;;;17.80;44.50;;;;;;6303359;28;20091;-75
2024/02/09 09:03:20;;;;;;;0.00;0.00;;;17.80;43.60;;;;;;6289468;28;20612;-77
2024/02/09 09:06:23;;;;;;;0.10;0.10;;;17.80;43.60;;;;;;6290000;28;20024;-76
2024/02/09 09:09:25;;;;;;;0.60;0.20;;;17.90;43.50;;;;;;6281022;28;20123;-77
2024/02/09 09:12:28;;;;;;;0.40;0.30;;;17.90;43.40;;;;;;6280887;28;20044;-76
2024/02/09 09:15:29;;;;;;;0.10;0.10;;;17.90;43.40;;;;;;6298107;28;20047;-77
2024/02/09 09:18:30;;;;;;;0.28;0.10;;;18.00;43.30;;;;;;6287865;28;20445;-76
2024/02/09 09:21:32;;;;;;;0.55;0.35;;;18.00;43.00;;;;;;6280816;28;20137;-76
2024/02/09 09:24:34;;;;;;;0.08;0.08;;;18.00;42.90;;;;;;6279162;28;20049;-76
2024/02/09 09:27:35;;;;;;;0.55;0.20;;;18.10;42.60;;;;;;6295071;28;20346;-76
2024/02/09 09:30:36;;;;;;;0.00;0.00;;;18.10;42.50;;;;;;6306488;28;20020;-76
2024/02/09 09:33:36;;;;;;;0.00;0.00;;;18.10;42.30;;;;;;6288536;28;20493;-77
2024/02/09 09:36:37;;;;;;;0.28;0.10;;;18.20;42.20;;;;;;6298523;28;20020;-78
2024/02/09 09:39:38;;;;;;;5.32;0.90;;;18.20;42.00;;;;;;6290975;28;20013;-78
2024/02/09 09:42:42;;;;;;;0.52;0.28;;;18.30;41.70;;;;;;6285199;28;20130;-78
2024/02/09 09:45:43;;;;;;;2.63;0.15;;;18.30;41.70;;;;;;6298820;28;20028;-76
2024/02/09 09:48:44;;;;;;;0.10;0.10;;;18.30;41.80;;;;;;6293320;28;20456;-77
2024/02/09 09:51:51;;;;;;;0.35;0.25;;;18.30;42.00;;;;;;6286323;28;20032;-77
2024/02/09 09:54:53;;;;;;;0.10;0.10;;;18.30;42.30;;;;;;6285583;28;20526;-77
2024/02/09 09:57:54;;;;;;;0.30;0.17;;;18.30;42.70;;;;;;6298075;28;20474;-77
2024/02/09 10:00:56;;;;;;;0.10;0.10;;;18.20;43.00;;;;;;6284191;28;20021;-76
2024/02/09 10:03:57;;;;;;;0.20;0.20;;;18.20;43.40;;;;;;6299271;28;20056;-77
2024/02/09 10:06:58;;;;;;;0.90;0.38;;;18.10;43.90;;;;;;6302998;28;20034;-76
2024/02/09 10:10:13;;;;;;;0.10;0.10;;;18.10;44.20;;;;;;6288456;28;20150;-76
2024/02/09 10:13:14;;;;;;;0.10;0.10;;;18.00;44.60;;;;;;6290817;28;20131;-76
2024/02/09 10:16:15;;;;;;;2.83;0.30;;;17.90;45.10;;;;;;6304340;28;20177;-77
2024/02/09 10:19:19;;;;;;;0.38;0.32;;;17.70;46.10;;;;;;6289308;28;20056;-76
2024/02/09 10:22:22;;;;;;;0.32;0.20;;;17.70;46.10;;;;;;6288044;28;20038;-76
2024/02/09 10:25:23;;;;;;;1.75;0.43;;;17.50;46.30;;;;;;6271006;28;20493;-76
2024/02/09 10:28:24;;;;;;;1.55;0.30;;;17.40;46.80;;;;;;6302883;28;20023;-76
2024/02/09 10:31:28;;;;;;;0.30;0.30;;;17.30;47.10;;;;;;6309626;28;20352;-77
2024/02/09 10:34:29;;;;;;;0.22;0.20;;;17.20;47.50;;;;;;6291613;28;20044;-78
2024/02/09 10:37:31;;;;;;;0.15;0.15;;;17.10;47.70;;;;;;6284129;28;20024;-76
2024/02/09 10:40:34;;;;;;;0.65;0.20;;;17.10;47.50;;;;;;6286602;28;20119;-76
2024/02/09 10:43:36;;;;;;;0.08;0.08;;;17.10;47.50;;;;;;6280878;28;20729;-75
2024/02/09 10:46:38;;;;;;;0.65;0.40;;;17.20;47.30;;;;;;6292763;28;20017;-76
2024/02/09 10:49:43;;;;;;;0.93;0.30;;;17.30;47.30;;;;;;6300809;28;20092;-76
2024/02/09 10:52:50;;;;;;;0.73;0.40;;;17.30;47.50;;;;;;6308412;28;20476;-74
2024/02/09 10:56:03;;;;;;;0.70;0.30;;;17.20;47.70;;;;;;6309293;28;20013;-78
2024/02/09 10:59:05;;;;;;;0.93;0.25;;;17.30;47.90;;;;;;6272305;28;20103;-76
2024/02/09 11:02:11;;;;;;;0.98;0.40;;;17.30;47.90;;;;;;6306648;28;20126;-75
2024/02/09 11:05:16;;;;;;;0.80;0.40;;;17.30;47.60;;;;;;6285154;28;20036;-75
2024/02/09 11:08:17;;;;;;;0.30;0.20;;;17.40;47.60;;;;;;6282955;28;20196;-77
2024/02/09 11:11:20;;;;;;;1.17;0.40;;;17.40;47.40;;;;;;6269176;28;20541;-76
2024/02/09 11:14:30;;;;;;;0.57;0.38;;;17.50;47.10;;;;;;6285501;28;20020;-77
2024/02/09 11:17:31;;;;;;;0.63;0.47;;;17.50;46.80;;;;;;6288850;28;20031;-77
2024/02/09 11:20:32;;;;;;;0.38;0.30;;;17.60;46.60;;;;;;6303845;28;20647;-78
2024/02/09 11:23:40;;;;;;;0.17;0.17;;;17.70;46.50;;;;;;6299845;28;20024;-76
2024/02/09 11:26:45;;;;;;;1.10;0.40;;;17.70;46.30;;;;;;6280156;28;20036;-75
2024/02/09 11:29:46;;;;;;;5.97;0.60;;;17.70;46.30;;;;;;6279946;28;20119;-75
2024/02/09 11:32:48;;;;;;;4.18;0.85;;;17.80;46.40;;;;;;6264483;28;20035;-78
2024/02/09 11:35:49;;;;;;;2.08;0.52;;;17.80;46.40;;;;;;6300893;28;20039;-76
2024/02/09 11:38:50;;;;;;;1.60;0.63;;;17.80;46.50;;;;;;6303740;28;20423;-75
2024/02/09 11:41:52;;;;;;;1.75;0.45;;;17.70;46.60;;;;;;6305427;28;20032;-77
2024/02/09 11:44:53;;;;;;;0.73;0.45;;;17.80;46.60;;;;;;6283940;28;20021;-75
2024/02/09 11:47:54;;;;;;;1.55;0.50;;;17.80;46.50;;;;;;6292463;28;20027;-75
2024/02/09 11:50:59;;;;;;;2.15;0.80;;;17.80;46.50;;;;;;6283984;28;20037;-75
2024/02/09 11:54:03;;;;;;;1.23;0.40;;;17.80;46.70;;;;;;6283298;28;20080;-77
2024/02/09 11:57:04;;;;;;;0.82;0.68;;;17.90;46.70;;;;;;6291363;28;20048;-76
2024/02/09 12:00:08;;;;;;;6.22;0.50;;;17.80;46.60;;;;;;6291210;28;20034;-75
2024/02/09 12:03:09;;;;;;;1.55;0.63;;;17.80;46.50;;;;;;6304828;28;20107;-74
2024/02/09 12:06:11;;;;;;;1.60;0.60;;;17.80;46.40;;;;;;6295548;28;20016;-76
2024/02/09 12:09:14;;;;;;;0.55;0.40;;;17.90;46.20;;;;;;6295109;28;20085;-77
2024/02/09 12:12:15;;;;;;;3.25;0.30;;;17.80;46.10;;;;;;6306817;28;20024;-76
2024/02/09 12:15:20;;;;;;;0.65;0.30;;;17.80;46.20;;;;;;6293138;28;20059;-75
2024/02/09 12:18:22;;;;;;;0.55;0.40;;;17.80;46.20;;;;;;6288859;28;20182;-76
2024/02/09 12:21:24;;;;;;;0.43;0.30;;;17.80;46.10;;;;;;6295162;28;20036;-76
2024/02/09 12:24:26;;;;;;;0.20;0.20;;;17.90;46.10;;;;;;6285897;28;20070;-76
2024/02/09 12:27:27;;;;;;;1.83;0.28;;;17.90;46.00;;;;;;6302481;28;20016;-76
2024/02/09 12:30:28;;;;;;;0.43;0.30;;;17.90;45.90;;;;;;6294837;28;20096;-75
2024/02/09 12:33:29;;;;;;;1.48;0.55;;;17.90;45.90;;;;;;6305079;28;20028;-76
2024/02/09 12:36:31;;;;;;;0.50;0.10;;;17.90;45.90;;;;;;6291209;28;20115;-75
2024/02/09 12:39:33;;;;;;;0.30;0.30;;;18.00;45.70;;;;;;6287625;28;20016;-76
2024/02/09 12:42:41;;;;;;;8.30;1.02;;;18.00;45.60;;;;;;6278376;28;20468;-77
2024/02/09 12:45:42;;;;;;;4.28;0.30;;;18.00;45.70;;;;;;6285265;28;20036;-77
2024/02/09 12:48:42;;;;;;;1.20;0.50;;;18.00;45.60;;;;;;6306060;28;20024;-75
2024/02/09 12:51:44;;;;;;;0.70;0.35;;;18.00;45.50;;;;;;6283088;28;20366;-76
2024/02/09 12:54:45;;;;;;;0.52;0.30;;;18.10;45.40;;;;;;6273258;28;20055;-76
2024/02/09 12:57:48;;;;;;;1.35;0.70;;;18.10;45.30;;;;;;6286395;28;20082;-75
2024/02/09 13:00:49;;;;;;;1.33;0.40;;;18.00;45.20;;;;;;6295148;28;20017;-75
2024/02/09 13:03:50;;;;;;;0.43;0.30;;;18.00;45.20;;;;;;6261767;28;20322;-78
2024/02/09 13:06:50;;;;;;;0.15;0.15;;;18.00;45.30;;;;;;6284323;28;20020;-77
2024/02/09 13:09:51;;;;;;;0.10;0.10;;;18.00;45.50;;;;;;6280384;28;20021;-77
2024/02/09 13:12:53;;;;;;;1.25;0.75;;;18.00;45.50;;;;;;6281092;28;20040;-76
2024/02/09 13:15:53;;;;;;;0.30;0.30;;;17.90;45.80;;;;;;6292649;28;20511;-75
2024/02/09 13:18:57;;;;;;;0.63;0.35;;;17.80;46.20;;;;;;6292161;28;20124;-76
2024/02/09 13:22:01;;;;;;;1.85;0.45;;;17.80;46.50;;;;;;6269093;28;20029;-75
2024/02/09 13:25:03;;;;;;;3.60;0.82;;;17.70;46.60;;;;;;6284860;28;20043;-76
2024/02/09 13:28:06;;;;;;;0.68;0.30;;;17.70;46.80;;;;;;6303006;28;20142;-75
2024/02/09 13:31:10;;;;;;;1.25;0.30;;;17.70;46.70;;;;;;6287159;28;20071;-77
2024/02/09 13:34:11;;;;;;;0.70;0.28;;;17.70;46.40;;;;;;6305750;28;20097;-77
2024/02/09 13:37:12;;;;;;;1.52;0.52;;;17.60;46.20;;;;;;6279441;28;20055;-77
2024/02/09 13:40:16;;;;;;;0.20;0.20;;;17.70;46.30;;;;;;6282248;28;20020;-77
2024/02/09 13:43:17;;;;;;;0.20;0.10;;;17.70;46.00;;;;;;6286000;28;20038;-74
2024/02/09 13:46:18;;;;;;;0.25;0.15;;;17.70;45.90;;;;;;6296640;28;20383;-75
2024/02/09 13:49:18;;;;;;;0.32;0.25;;;17.70;45.60;;;;;;6292675;28;20044;-77
2024/02/09 13:52:20;;;;;;;0.55;0.40;;;17.70;45.40;;;;;;6280854;28;20043;-77
2024/02/09 13:55:22;;;;;;;0.10;0.10;;;17.80;45.30;;;;;;6283401;28;20034;-76
2024/02/09 13:58:23;;;;;;;0.40;0.20;;;17.80;45.20;;;;;;6301323;28;20527;-77
2024/02/09 14:01:24;;;;;;;0.20;0.20;;;17.80;45.00;;;;;;6287011;28;20081;-74
2024/02/09 14:04:25;;;;;;;0.30;0.30;;;17.80;44.90;;;;;;6303384;28;20069;-76
2024/02/09 14:07:26;;;;;;;1.60;0.30;;;17.80;44.80;;;;;;6265227;28;20124;-76
2024/02/09 14:10:27;;;;;;;0.45;0.20;;;17.80;44.80;;;;;;6292265;28;20027;-76
2024/02/09 14:13:28;;;;;;;0.30;0.17;;;17.90;44.90;;;;;;6279964;28;20199;-76
2024/02/09 14:16:34;;;;;;;0.10;0.10;;;17.80;44.70;;;;;;6290460;28;20027;-76
2024/02/09 14:19:35;;;;;;;0.13;0.13;;;17.80;44.70;;;;;;6299612;28;20023;-76
2024/02/09 14:22:36;;;;;;;0.38;0.20;;;17.80;44.50;;;;;;6287574;28;20028;-77
2024/02/09 14:25:38;;;;;;;0.47;0.20;;;17.80;44.60;;;;;;6288701;28;20100;-76
2024/02/09 14:28:39;;;;;;;0.20;0.20;;;17.80;44.70;;;;;;6306671;28;20027;-74
2024/02/09 14:31:41;;;;;;;0.80;0.22;;;17.80;44.80;;;;;;6296300;28;20036;-76
2024/02/09 14:34:43;;;;;;;0.30;0.30;;;17.70;44.80;;;;;;6286706;28;20452;-73
2024/02/09 14:37:44;;;;;;;0.43;0.30;;;17.70;44.80;;;;;;6291035;28;20028;-75
2024/02/09 14:40:45;;;;;;;0.63;0.30;;;17.70;44.90;;;;;;6293291;28;20016;-75
2024/02/09 14:43:48;;;;;;;0.70;0.28;;;17.60;45.00;;;;;;6307358;28;20047;-75
2024/02/09 14:46:51;;;;;;;2.15;0.40;;;17.60;45.10;;;;;;6292941;28;20017;-75
2024/02/09 14:49:53;;;;;;;0.10;0.10;;;17.60;45.30;;;;;;6287868;28;20169;-75
2024/02/09 14:52:57;;;;;;;0.20;0.17;;;17.60;45.30;;;;;;6300629;28;20043;-75
2024/02/09 14:55:58;;;;;;;0.43;0.28;;;17.50;45.50;;;;;;6303236;28;20013;-75
2024/02/09 14:58:59;;;;;;;0.10;0.10;;;17.70;45.70;;;;;;6280905;28;20048;-75
2024/02/09 15:02:00;;;;;;;0.20;0.17;;;17.50;45.50;;;;;;6284182;28;20468;-75
2024/02/09 15:05:03;;;;;;;0.30;0.15;;;17.50;45.50;;;;;;6282569;28;20110;-76
2024/02/09 15:08:04;;;;;;;0.03;0.03;;;17.50;45.00;;;;;;6300965;28;20016;-74
2024/02/09 15:11:06;;;;;;;0.20;0.13;;;17.50;44.90;;;;;;6293082;28;20044;-75
2024/02/09 15:14:09;;;;;;;2.55;0.13;;;17.50;44.90;;;;;;6291976;28;20016;-75
2024/02/09 15:17:10;;;;;;;0.00;0.00;;;17.60;44.70;;;;;;6289875;28;20157;-77
2024/02/09 15:20:11;;;;;;;0.05;0.05;;;17.60;44.50;;;;;;6288006;28;20016;-77
2024/02/09 15:23:12;;;;;;;0.20;0.20;;;17.60;44.50;;;;;;6290479;28;20117;-79
2024/02/09 15:26:15;;;;;;;0.08;0.08;;;17.60;44.40;;;;;;6291483;28;20452;-78
2024/02/09 15:29:16;;;;;;;0.10;0.10;;;17.60;44.40;;;;;;6288517;28;20058;-77
2024/02/09 15:32:17;;;;;;;0.65;0.30;;;17.60;44.50;;;;;;6290266;28;20097;-77
2024/02/09 15:35:18;;;;;;;0.30;0.20;;;17.60;44.50;;;;;;6287986;28;20492;-78
2024/02/09 15:38:19;;;;;;;0.03;0.03;;;17.50;44.50;;;;;;6287837;28;20518;-76
2024/02/09 15:41:20;;;;;;;0.10;0.10;;;17.50;44.60;;;;;;6288459;28;20372;-76
2024/02/09 15:44:21;;;;;;;0.47;0.30;;;17.50;43.90;;;;;;6291316;28;20016;-75
2024/02/09 15:47:23;;;;;;;0.73;0.35;;;17.50;44.00;;;;;;6286259;28;20106;-76
2024/02/09 15:50:24;;;;;;;0.30;0.30;;;17.50;44.20;;;;;;6289555;28;20069;-74
2024/02/09 15:53:25;;;;;;;0.47;0.20;;;17.50;44.10;;;;;;6290396;28;20024;-73
2024/02/09 15:56:31;;;;;;;0.17;0.10;;;17.60;44.20;;;;;;6293603;28;20487;-76
2024/02/09 15:59:34;;;;;;;0.10;0.10;;;17.60;44.20;;;;;;6286732;28;20020;-75
2024/02/09 16:02:35;;;;;;;0.63;0.60;;;17.60;44.20;;;;;;6285322;28;20025;-72
2024/02/09 16:05:40;;;;;;;8.10;4.28;;;17.60;44.10;;;;;;6288028;28;20032;-77
2024/02/09 16:08:41;;;;;;;0.80;0.40;;;17.60;43.90;;;;;;6287734;28;20054;-75
2024/02/09 16:11:46;;;;;;;0.60;0.30;;;17.60;43.80;;;;;;6290545;28;20551;-76
2024/02/09 16:14:46;;;;;;;0.20;0.20;;;17.60;43.60;;;;;;6281133;28;20107;-75
2024/02/09 16:17:56;;;;;;;2.50;0.40;;;17.60;43.50;;;;;;6282655;28;20430;-76
2024/02/09 16:20:58;;;;;;;0.95;0.35;;;17.60;43.40;;;;;;6284327;28;20024;-77
2024/02/09 16:24:01;;;;;;;1.02;0.15;;;17.60;43.40;;;;;;6298774;28;20103;-75
2024/02/09 16:27:02;;;;;;;0.05;0.05;;;17.50;43.20;;;;;;6299538;28;20527;-77
2024/02/09 16:30:04;;;;;;;0.17;0.17;;;17.50;43.20;;;;;;6299641;28;20061;-75
2024/02/09 16:33:05;;;;;;;0.40;0.30;;;17.50;43.10;;;;;;6291335;28;20054;-72
2024/02/09 16:36:06;;;;;;;0.20;0.20;;;17.50;43.10;;;;;;6306876;28;20016;-74
2024/02/09 16:39:07;;;;;;;1.55;0.70;;;17.50;43.10;;;;;;6292616;28;20016;-76
2024/02/09 16:42:07;;;;;;;3.40;0.32;;;17.60;43.30;;;;;;6292163;28;20086;-75
2024/02/09 16:45:08;;;;;;;1.65;0.77;;;17.50;43.30;;;;;;6282264;28;20119;-76
2024/02/09 16:48:10;;;;;;;0.20;0.20;;;17.60;43.30;;;;;;6294967;28;20452;-76
2024/02/09 16:51:10;;;;;;;0.65;0.30;;;17.60;43.00;;;;;;6289624;28;20361;-76
2024/02/09 16:54:11;;;;;;;0.20;0.20;;;17.60;42.80;;;;;;6274449;28;20056;-76
2024/02/09 16:57:12;;;;;;;0.73;0.30;;;17.60;42.90;;;;;;6281367;28;20027;-76
2024/02/09 17:00:15;;;;;;;0.00;0.00;;;17.60;42.90;;;;;;6288732;28;20011;-74
2024/02/09 17:03:17;;;;;;;0.43;0.20;;;17.60;43.00;;;;;;6286804;28;20048;-74
2024/02/09 17:06:19;;;;;;;0.40;0.20;;;17.60;43.00;;;;;;6283553;28;20047;-75
2024/02/09 17:09:23;;;;;;;0.52;0.28;;;17.50;42.50;;;;;;6287797;28;20100;-75
2024/02/09 17:12:24;;;;;;;5.25;0.22;;;17.50;42.50;;;;;;6284915;28;20035;-76
2024/02/09 17:15:25;;;;;;;0.60;0.47;;;17.50;42.50;;;;;;6266503;28;20476;-75
2024/02/09 17:18:26;;;;;;;0.15;0.15;;;17.50;42.20;;;;;;6282454;28;20391;-76
2024/02/09 17:21:27;;;;;;;0.20;0.15;;;17.60;42.20;;;;;;6286936;28;20020;-76
2024/02/09 17:24:28;;;;;;;0.40;0.30;;;17.50;42.00;;;;;;6291896;28;20020;-75
2024/02/09 17:27:29;;;;;;;3.60;0.68;;;17.60;42.20;;;;;;6279984;28;20479;-75
2024/02/09 17:30:30;;;;;;;0.30;0.20;;;17.60;42.30;;;;;;6284918;28;20056;-75
2024/02/09 17:33:31;;;;;;;0.65;0.22;;;17.60;42.00;;;;;;6285330;28;20039;-75
2024/02/09 17:36:32;;;;;;;0.55;0.30;;;17.60;42.10;;;;;;6286214;28;20412;-76
2024/02/09 17:39:32;;;;;;;1.98;0.30;;;17.60;42.00;;;;;;6284853;28;20631;-75